createdAt,value
2023-05-18T00:01:14.509Z,5.17
2023-05-18T00:03:47.456Z,5.12
2023-05-18T00:06:15.338Z,5.18
2023-05-18T00:08:43.036Z,5.17
2023-05-18T00:11:10.864Z,5.15
2023-05-18T00:13:38.618Z,5.10
2023-05-18T00:16:06.637Z,5.06
2023-05-18T00:18:34.555Z,5.09
2023-05-18T00:21:04.397Z,5.14
2023-05-18T00:23:33.086Z,5.22
2023-05-18T00:26:02.763Z,5.25
2023-05-18T00:28:33.036Z,5.09
2023-05-18T00:31:01.000Z,5.00
2023-05-18T00:33:28.776Z,4.95
2023-05-18T00:35:57.288Z,4.92
2023-05-18T00:38:26.494Z,4.97
2023-05-18T00:40:54.289Z,4.96
2023-05-18T00:43:21.982Z,4.89
2023-05-18T00:45:49.813Z,4.82
2023-05-18T00:48:17.675Z,4.90
2023-05-18T00:50:45.686Z,4.97
2023-05-18T00:53:13.472Z,5.10
2023-05-18T00:55:43.332Z,5.07
2023-05-18T00:58:12.558Z,5.01
2023-05-18T01:00:40.501Z,4.93
2023-05-18T01:03:11.010Z,4.94
2023-05-18T01:05:38.817Z,4.84
2023-05-18T01:08:07.051Z,4.87
2023-05-18T01:10:39.730Z,4.85
2023-05-18T01:13:16.585Z,4.87
2023-05-18T01:15:50.495Z,4.73
2023-05-18T01:18:23.373Z,4.69
2023-05-18T01:21:00.175Z,4.77
2023-05-18T01:23:48.584Z,4.69
2023-05-18T01:26:24.652Z,4.68
2023-05-18T01:28:53.162Z,4.70
2023-05-18T01:31:21.002Z,4.67
2023-05-18T01:33:48.817Z,4.60
2023-05-18T01:36:16.635Z,4.57
2023-05-18T01:38:48.310Z,4.53
2023-05-18T01:41:22.741Z,4.41
2023-05-18T01:43:57.206Z,4.35
2023-05-18T01:46:35.963Z,4.37
2023-05-18T01:49:13.189Z,4.37
2023-05-18T01:51:45.444Z,4.48
2023-05-18T01:54:16.822Z,4.48
2023-05-18T01:56:48.289Z,4.50
2023-05-18T01:59:16.650Z,4.46
2023-05-18T02:01:45.213Z,4.44
2023-05-18T02:04:13.139Z,4.51
2023-05-18T02:06:40.995Z,4.50
2023-05-18T02:09:09.068Z,4.52
2023-05-18T02:11:36.923Z,4.48
2023-05-18T02:14:06.064Z,4.48
2023-05-18T02:16:33.793Z,4.51
2023-05-18T02:19:01.590Z,4.53
2023-05-18T02:21:29.365Z,4.56
2023-05-18T02:23:57.324Z,4.59
2023-05-18T02:26:25.114Z,4.61
2023-05-18T02:28:52.879Z,4.59
2023-05-18T02:31:22.110Z,4.55
2023-05-18T02:33:49.945Z,4.50
2023-05-18T02:36:18.590Z,4.46
2023-05-18T02:38:46.375Z,4.50
2023-05-18T02:41:14.227Z,4.43
2023-05-18T02:43:42.044Z,4.40
2023-05-18T02:46:09.921Z,4.43
2023-05-18T02:48:39.099Z,4.43
2023-05-18T02:51:06.973Z,4.40
2023-05-18T02:53:34.823Z,4.36
2023-05-18T02:56:03.733Z,4.36
2023-05-18T02:58:31.688Z,4.36
2023-05-18T03:01:00.400Z,4.31
2023-05-18T03:03:28.271Z,4.26
2023-05-18T03:05:57.506Z,4.21
2023-05-18T03:08:27.129Z,4.23
2023-05-18T03:10:55.231Z,4.10
2023-05-18T03:13:23.076Z,4.02
2023-05-18T03:15:51.898Z,4.08
2023-05-18T03:18:20.401Z,4.11
2023-05-18T03:20:49.983Z,4.13
2023-05-18T03:23:19.512Z,4.16
2023-05-18T03:25:47.431Z,4.08
2023-05-18T03:28:15.368Z,4.13
2023-05-18T03:30:43.683Z,4.24
2023-05-18T03:33:12.214Z,4.25
2023-05-18T03:35:40.646Z,4.31
2023-05-18T03:38:08.653Z,4.35
2023-05-18T03:40:37.908Z,4.41
2023-05-18T03:43:07.498Z,4.50
2023-05-18T03:45:35.510Z,4.68
2023-05-18T03:48:03.559Z,4.89
2023-05-18T03:50:31.645Z,5.03
2023-05-18T03:52:59.513Z,5.15
2023-05-18T03:55:27.757Z,5.31
2023-05-18T03:57:59.066Z,5.37
2023-05-18T04:00:26.884Z,5.51
2023-05-18T04:02:54.988Z,5.62
2023-05-18T04:05:22.928Z,5.72
2023-05-18T04:07:50.733Z,5.78
2023-05-18T04:10:19.664Z,5.83
2023-05-18T04:12:47.674Z,5.96
2023-05-18T04:15:16.862Z,6.00
2023-05-18T04:17:45.807Z,6.04
2023-05-18T04:20:15.071Z,6.19
2023-05-18T04:22:46.521Z,6.32
2023-05-18T04:25:15.308Z,6.48
2023-05-18T04:27:45.745Z,6.53
2023-05-18T04:30:14.664Z,6.63
2023-05-18T04:32:43.975Z,6.79
2023-05-18T04:35:12.690Z,7.07
2023-05-18T04:37:41.299Z,7.21
2023-05-18T04:40:13.434Z,7.62
2023-05-18T04:42:45.849Z,8.08
2023-05-18T04:45:19.056Z,9.10
2023-05-18T04:47:53.378Z,10.10
2023-05-18T04:50:23.537Z,11.14
2023-05-18T04:52:52.789Z,11.80
2023-05-18T04:55:26.368Z,12.21
2023-05-18T04:57:56.481Z,12.55
2023-05-18T05:00:25.912Z,12.88
2023-05-18T05:02:55.243Z,13.10
2023-05-18T05:05:23.258Z,13.45
2023-05-18T05:07:51.816Z,13.57
2023-05-18T05:10:19.852Z,14.32
2023-05-18T05:12:49.489Z,14.45
2023-05-18T05:15:18.158Z,15.50
2023-05-18T05:17:47.578Z,15.08
2023-05-18T05:20:19.598Z,14.91
2023-05-18T05:22:47.746Z,15.92
2023-05-18T05:25:16.739Z,15.43
2023-05-18T05:27:44.566Z,15.41
2023-05-18T05:30:12.897Z,14.67
2023-05-18T05:32:40.737Z,14.85
2023-05-18T05:35:09.050Z,14.30
2023-05-18T05:37:38.426Z,14.80
2023-05-18T05:40:07.758Z,14.51
2023-05-18T05:42:35.768Z,14.04
2023-05-18T05:45:03.649Z,13.81
2023-05-18T05:47:33.029Z,14.05
2023-05-18T05:50:01.256Z,13.98
2023-05-18T05:52:29.732Z,13.73
2023-05-18T05:54:58.918Z,14.16
2023-05-18T05:57:26.920Z,14.33
2023-05-18T05:59:54.785Z,14.43
2023-05-18T06:02:22.663Z,14.01
2023-05-18T06:04:50.711Z,14.03
2023-05-18T06:07:18.649Z,14.84
2023-05-18T06:09:46.534Z,15.46
2023-05-18T06:12:15.897Z,14.85
2023-05-18T06:14:43.786Z,15.62
2023-05-18T06:17:11.980Z,16.02
2023-05-18T06:19:39.887Z,16.53
2023-05-18T06:22:07.799Z,16.01
2023-05-18T06:24:35.764Z,16.92
2023-05-18T06:27:04.111Z,17.49
2023-05-18T06:29:33.247Z,17.31
2023-05-18T06:32:01.657Z,18.50
2023-05-18T06:34:29.731Z,17.70
2023-05-18T06:36:58.592Z,17.35
2023-05-18T06:39:26.475Z,17.26
2023-05-18T06:41:54.199Z,17.28
2023-05-18T06:44:22.088Z,17.51
2023-05-18T06:46:51.276Z,17.18
2023-05-18T06:49:21.095Z,17.31
2023-05-18T06:51:48.960Z,17.00
2023-05-18T06:54:17.288Z,17.04
2023-05-18T06:56:45.259Z,18.49
2023-05-18T06:59:13.229Z,18.79
2023-05-18T07:01:41.250Z,18.00
2023-05-18T07:04:10.650Z,18.10
2023-05-18T07:06:38.816Z,18.10
2023-05-18T07:09:08.033Z,19.27
2023-05-18T07:11:36.027Z,18.51
2023-05-18T07:14:03.889Z,18.79
2023-05-18T07:16:32.015Z,19.33
2023-05-18T07:19:00.071Z,18.22
2023-05-18T07:21:29.400Z,18.41
2023-05-18T07:23:57.162Z,19.89
2023-05-18T07:26:24.896Z,19.77
2023-05-18T07:28:52.692Z,18.70
2023-05-18T07:31:21.764Z,18.87
2023-05-18T07:33:49.934Z,19.12
2023-05-18T07:36:18.008Z,19.49
2023-05-18T07:38:47.509Z,18.81
2023-05-18T07:41:15.631Z,17.18
2023-05-18T07:43:43.402Z,18.49
2023-05-18T07:46:11.281Z,19.11
2023-05-18T07:48:40.762Z,17.95
2023-05-18T07:51:10.096Z,17.94
2023-05-18T07:53:38.262Z,16.93
2023-05-18T07:56:08.689Z,17.48
2023-05-18T07:58:37.278Z,18.06
2023-05-18T08:01:05.339Z,18.67
2023-05-18T08:03:33.306Z,19.40
2023-05-18T08:06:01.370Z,18.72
2023-05-18T08:08:29.791Z,17.66
2023-05-18T08:10:58.363Z,16.77
2023-05-18T08:13:28.459Z,16.42
2023-05-18T08:16:10.599Z,16.25
2023-05-18T08:18:39.991Z,16.82
2023-05-18T08:21:09.487Z,16.39
2023-05-18T08:23:37.932Z,17.02
2023-05-18T08:26:06.256Z,17.08
2023-05-18T08:28:35.940Z,16.83
2023-05-18T08:31:03.889Z,16.31
2023-05-18T08:33:32.661Z,16.21
2023-05-18T08:36:00.517Z,16.13
2023-05-18T08:38:28.378Z,16.18
2023-05-18T08:41:03.393Z,17.06
2023-05-18T08:43:34.131Z,17.85
2023-05-18T08:46:08.734Z,18.00
2023-05-18T08:48:38.309Z,17.54
2023-05-18T08:51:09.687Z,17.72
2023-05-18T08:53:42.741Z,16.20
2023-05-18T08:56:12.150Z,16.25
2023-05-18T08:58:45.932Z,16.63
2023-05-18T09:01:15.373Z,16.71
2023-05-18T09:03:43.257Z,16.67
2023-05-18T09:06:11.785Z,16.19
2023-05-18T09:08:40.097Z,17.43
2023-05-18T09:11:09.483Z,17.14
2023-05-18T09:13:37.237Z,17.35
2023-05-18T09:16:05.289Z,16.83
2023-05-18T09:18:34.649Z,16.81
2023-05-18T09:21:02.677Z,16.24
2023-05-18T09:23:30.437Z,16.34
2023-05-18T09:26:00.083Z,15.72
2023-05-18T09:28:32.376Z,15.55
2023-05-18T09:31:00.480Z,15.63
2023-05-18T09:33:36.661Z,15.50
2023-05-18T09:36:05.910Z,16.33
2023-05-18T09:38:38.455Z,16.57
2023-05-18T09:41:11.145Z,16.15
2023-05-18T09:43:39.035Z,16.55
2023-05-18T09:46:11.153Z,16.56
2023-05-18T09:48:43.532Z,16.17
2023-05-18T09:51:13.698Z,15.92
2023-05-18T09:53:41.810Z,15.35
2023-05-18T09:56:12.165Z,15.08
2023-05-18T09:58:40.742Z,15.31
2023-05-18T10:01:08.585Z,15.46
2023-05-18T10:03:38.018Z,15.18
2023-05-18T10:06:08.637Z,15.90
2023-05-18T10:08:38.070Z,16.21
2023-05-18T10:11:06.547Z,16.15
2023-05-18T10:13:35.643Z,16.17
2023-05-18T10:16:05.096Z,16.40
2023-05-18T10:18:35.679Z,16.53
2023-05-18T10:21:05.964Z,16.43
2023-05-18T10:23:41.337Z,16.94
2023-05-18T10:26:10.359Z,16.59
2023-05-18T10:28:43.193Z,16.20
2023-05-18T10:31:11.368Z,16.18
2023-05-18T10:33:39.830Z,16.29
2023-05-18T10:36:10.106Z,16.46
2023-05-18T10:38:40.707Z,16.14
2023-05-18T10:41:10.956Z,16.15
2023-05-18T10:43:38.976Z,16.20
2023-05-18T10:46:08.617Z,17.17
2023-05-18T10:48:41.351Z,17.12
2023-05-18T10:51:09.837Z,17.40
2023-05-18T10:53:43.826Z,17.70
2023-05-18T10:56:11.772Z,17.47
2023-05-18T10:58:42.131Z,17.58
2023-05-18T11:01:12.783Z,16.84
2023-05-18T11:03:42.030Z,17.48
2023-05-18T11:06:12.155Z,17.08
2023-05-18T11:08:49.331Z,16.42
2023-05-18T11:11:19.166Z,16.52
2023-05-18T11:13:50.596Z,16.27
2023-05-18T11:16:21.103Z,16.49
2023-05-18T11:18:50.470Z,16.55
2023-05-18T11:21:51.767Z,16.82
2023-05-18T11:24:23.351Z,16.50
2023-05-18T11:26:52.780Z,16.49
2023-05-18T11:29:22.513Z,16.52
2023-05-18T11:31:52.445Z,16.71
2023-05-18T11:34:40.795Z,16.55
2023-05-18T11:37:10.241Z,16.80
2023-05-18T11:39:51.727Z,16.56
2023-05-18T11:42:24.262Z,17.02
2023-05-18T11:44:55.901Z,16.55
2023-05-18T11:47:30.822Z,16.42
2023-05-18T11:50:00.328Z,16.52
2023-05-18T11:52:28.101Z,16.93
2023-05-18T11:54:58.833Z,17.38
2023-05-18T11:57:28.088Z,17.80
2023-05-18T11:59:58.078Z,17.70
2023-05-18T12:02:28.309Z,17.47
2023-05-18T12:04:58.135Z,17.61
2023-05-18T12:07:26.232Z,17.65
2023-05-18T12:09:54.079Z,17.30
2023-05-18T12:12:24.395Z,17.45
2023-05-18T12:14:56.292Z,17.51
2023-05-18T12:17:24.608Z,17.42
2023-05-18T12:19:52.805Z,17.26
2023-05-18T12:22:21.355Z,17.33
2023-05-18T12:24:53.272Z,17.19
2023-05-18T12:27:26.411Z,17.25
2023-05-18T12:29:55.266Z,16.94
2023-05-18T12:32:23.117Z,17.03
2023-05-18T12:34:52.482Z,17.36
2023-05-18T12:37:23.985Z,17.26
2023-05-18T12:39:55.999Z,17.69
2023-05-18T12:42:25.188Z,17.48
2023-05-18T12:44:53.082Z,17.53
2023-05-18T12:47:20.833Z,17.33
2023-05-18T12:49:50.236Z,17.41
2023-05-18T12:52:18.343Z,17.24
2023-05-18T12:54:54.940Z,17.61
2023-05-18T12:57:28.043Z,17.71
2023-05-18T12:59:56.348Z,17.80
2023-05-18T13:02:32.465Z,17.63
2023-05-18T13:05:08.688Z,17.28
2023-05-18T13:07:37.362Z,17.30
2023-05-18T13:10:13.398Z,17.51
2023-05-18T13:12:44.590Z,17.78
2023-05-18T13:15:14.192Z,17.73
2023-05-18T13:17:49.917Z,17.73
2023-05-18T13:20:18.156Z,18.10
2023-05-18T13:22:46.124Z,17.33
2023-05-18T13:25:13.980Z,17.64
2023-05-18T13:27:45.803Z,18.02
2023-05-18T13:30:15.251Z,18.27
2023-05-18T13:32:44.615Z,18.34
2023-05-18T13:35:13.548Z,18.12
2023-05-18T13:37:41.607Z,17.91
2023-05-18T13:40:10.297Z,18.23
2023-05-18T13:42:38.519Z,18.08
2023-05-18T13:45:09.394Z,18.51
2023-05-18T13:47:37.380Z,18.43
2023-05-18T13:50:07.565Z,18.69
2023-05-18T13:52:35.371Z,18.76
2023-05-18T13:55:03.711Z,18.49
2023-05-18T13:57:32.133Z,18.32
2023-05-18T14:00:03.952Z,17.83
2023-05-18T14:02:33.482Z,17.76
2023-05-18T14:05:01.322Z,17.62
2023-05-18T14:07:29.181Z,17.39
2023-05-18T14:09:57.039Z,17.54
2023-05-18T14:12:24.752Z,17.84
2023-05-18T14:14:52.546Z,18.08
2023-05-18T14:17:20.455Z,17.63
2023-05-18T14:19:49.672Z,17.76
2023-05-18T14:22:18.721Z,18.05
2023-05-18T14:24:46.502Z,18.27
2023-05-18T14:27:14.421Z,18.45
2023-05-18T14:29:42.330Z,18.64
2023-05-18T14:32:10.165Z,18.38
2023-05-18T14:34:37.982Z,18.19
2023-05-18T14:37:07.411Z,17.86
2023-05-18T14:39:35.833Z,17.45
2023-05-18T14:42:03.702Z,17.35
2023-05-18T14:44:31.477Z,17.29
2023-05-18T14:46:59.294Z,17.36
2023-05-18T14:49:27.228Z,17.38
2023-05-18T14:51:55.126Z,17.60
2023-05-18T14:54:24.362Z,17.38
2023-05-18T14:56:52.167Z,17.51
2023-05-18T14:59:21.158Z,17.56
2023-05-18T15:01:49.067Z,17.59
2023-05-18T15:04:19.828Z,17.53
2023-05-18T15:06:48.119Z,17.58
2023-05-18T15:09:16.101Z,17.72
2023-05-18T15:11:45.647Z,17.59
2023-05-18T15:14:13.486Z,17.50
2023-05-18T15:16:42.237Z,17.53
2023-05-18T15:19:10.204Z,17.49
2023-05-18T15:21:38.252Z,17.36
2023-05-18T15:24:06.428Z,17.33
2023-05-18T15:26:34.250Z,17.23
2023-05-18T15:29:04.133Z,17.09
2023-05-18T15:31:32.910Z,17.22
2023-05-18T15:34:00.774Z,17.18
2023-05-18T15:36:29.327Z,17.20
2023-05-18T15:38:57.161Z,17.25
2023-05-18T15:41:26.157Z,17.25
2023-05-18T15:43:54.104Z,17.29
2023-05-18T15:46:23.774Z,17.44
2023-05-18T15:48:51.704Z,17.45
2023-05-18T15:51:19.441Z,17.43
2023-05-18T15:53:47.237Z,17.40
2023-05-18T15:56:15.117Z,17.61
2023-05-18T15:58:42.876Z,17.26
2023-05-18T16:01:11.019Z,17.27
2023-05-18T16:03:40.304Z,17.28
2023-05-18T16:06:09.442Z,17.09
2023-05-18T16:08:37.225Z,16.93
2023-05-18T16:11:06.966Z,16.92
2023-05-18T16:13:34.836Z,17.07
2023-05-18T16:16:04.162Z,17.33
2023-05-18T16:18:31.946Z,17.59
2023-05-18T16:21:01.207Z,17.67
2023-05-18T16:23:29.099Z,17.76
2023-05-18T16:25:56.878Z,17.89
2023-05-18T16:28:24.644Z,17.92
2023-05-18T16:30:52.528Z,17.90
2023-05-18T16:33:20.345Z,17.85
2023-05-18T16:35:48.311Z,17.60
2023-05-18T16:38:17.560Z,17.43
2023-05-18T16:40:45.392Z,17.40
2023-05-18T16:43:13.171Z,17.29
2023-05-18T16:45:42.361Z,17.49
2023-05-18T16:48:10.479Z,17.54
2023-05-18T16:50:38.631Z,17.61
2023-05-18T16:53:06.453Z,17.59
2023-05-18T16:55:35.636Z,17.64
2023-05-18T16:58:03.980Z,17.65
2023-05-18T17:00:32.003Z,17.70
2023-05-18T17:03:00.276Z,17.70
2023-05-18T17:05:28.258Z,17.65
2023-05-18T17:07:56.179Z,17.68
2023-05-18T17:10:24.120Z,17.54
2023-05-18T17:12:53.370Z,17.52
2023-05-18T17:15:21.291Z,17.38
2023-05-18T17:17:49.134Z,17.31
2023-05-18T17:20:16.892Z,17.22
2023-05-18T17:22:44.706Z,17.15
2023-05-18T17:25:12.562Z,17.13
2023-05-18T17:27:40.626Z,17.13
2023-05-18T17:30:11.282Z,17.02
2023-05-18T17:32:39.835Z,17.01
2023-05-18T17:35:10.653Z,16.96
2023-05-18T17:37:40.451Z,16.92
2023-05-18T17:40:09.686Z,16.76
2023-05-18T17:42:37.631Z,16.74
2023-05-18T17:45:06.030Z,16.68
2023-05-18T17:47:35.312Z,16.59
2023-05-18T17:50:03.823Z,16.54
2023-05-18T17:52:31.595Z,16.48
2023-05-18T17:54:59.413Z,16.47
2023-05-18T17:57:28.056Z,16.37
2023-05-18T17:59:55.877Z,16.29
2023-05-18T18:02:23.633Z,16.17
2023-05-18T18:04:52.708Z,16.09
2023-05-18T18:07:20.515Z,15.96
2023-05-18T18:09:48.526Z,15.87
2023-05-18T18:12:16.330Z,15.79
2023-05-18T18:14:44.225Z,15.67
2023-05-18T18:17:12.113Z,15.57
2023-05-18T18:19:39.898Z,15.45
2023-05-18T18:22:09.185Z,15.34
2023-05-18T18:24:36.907Z,15.22
2023-05-18T18:27:05.656Z,15.10
2023-05-18T18:29:33.538Z,14.99
2023-05-18T18:32:01.604Z,14.76
2023-05-18T18:34:29.428Z,14.55
2023-05-18T18:36:57.421Z,14.39
2023-05-18T18:39:26.878Z,14.20
2023-05-18T18:41:54.805Z,14.00
2023-05-18T18:44:22.660Z,13.83
2023-05-18T18:46:52.818Z,13.64
2023-05-18T18:49:20.873Z,13.50
2023-05-18T18:51:48.965Z,13.39
2023-05-18T18:54:16.754Z,13.28
2023-05-18T18:56:45.967Z,13.18
2023-05-18T18:59:13.776Z,13.09
2023-05-18T19:01:41.610Z,13.01
2023-05-18T19:04:09.437Z,12.95
2023-05-18T19:06:37.902Z,12.91
2023-05-18T19:09:05.770Z,12.85
2023-05-18T19:11:33.665Z,12.80
2023-05-18T19:14:04.480Z,12.75
2023-05-18T19:16:33.031Z,12.66
2023-05-18T19:19:00.845Z,12.60
2023-05-18T19:21:29.227Z,12.56
2023-05-18T19:23:58.779Z,12.46
2023-05-18T19:26:28.355Z,12.42
2023-05-18T19:28:56.254Z,12.39
2023-05-18T19:31:25.705Z,12.32
2023-05-18T19:33:54.252Z,12.21
2023-05-18T19:36:22.103Z,12.06
2023-05-18T19:38:52.403Z,12.02
2023-05-18T19:41:22.891Z,11.94
2023-05-18T19:43:51.732Z,11.99
2023-05-18T19:46:20.069Z,12.01
2023-05-18T19:48:49.541Z,12.04
2023-05-18T19:51:18.469Z,12.06
2023-05-18T19:53:46.368Z,12.12
2023-05-18T19:56:14.212Z,12.12
2023-05-18T19:58:41.993Z,12.19
2023-05-18T20:01:10.535Z,12.18
2023-05-18T20:03:43.019Z,12.19
2023-05-18T20:06:12.687Z,12.15
2023-05-18T20:08:40.807Z,12.12
2023-05-18T20:11:08.637Z,12.16
2023-05-18T20:13:38.293Z,12.10
2023-05-18T20:16:07.991Z,12.06
2023-05-18T20:18:35.908Z,12.07
2023-05-18T20:21:03.750Z,12.02
2023-05-18T20:23:33.017Z,11.96
2023-05-18T20:26:01.103Z,11.90
2023-05-18T20:28:31.432Z,11.84
2023-05-18T20:30:59.398Z,11.76
2023-05-18T20:33:27.298Z,11.70
2023-05-18T20:35:55.152Z,11.70
2023-05-18T20:38:26.019Z,11.63
2023-05-18T20:40:57.872Z,11.59
2023-05-18T20:43:25.627Z,11.52
2023-05-18T20:45:53.497Z,11.48
2023-05-18T20:48:26.668Z,11.44
2023-05-18T20:50:54.493Z,11.38
2023-05-18T20:53:22.293Z,11.30
2023-05-18T20:55:50.557Z,11.25
2023-05-18T20:58:19.698Z,11.21
2023-05-18T21:00:47.908Z,11.18
2023-05-18T21:03:18.432Z,11.08
2023-05-18T21:05:49.470Z,11.03
2023-05-18T21:08:17.444Z,11.01
2023-05-18T21:10:45.462Z,10.95
2023-05-18T21:13:13.211Z,10.88
2023-05-18T21:15:42.514Z,10.84
2023-05-18T21:18:10.525Z,10.76
2023-05-18T21:20:38.318Z,10.77
2023-05-18T21:23:06.075Z,10.76
2023-05-18T21:25:33.973Z,10.74
2023-05-18T21:28:01.699Z,10.71
2023-05-18T21:30:29.768Z,10.65
2023-05-18T21:32:59.262Z,10.64
2023-05-18T21:35:27.800Z,10.61
2023-05-18T21:37:55.521Z,10.56
2023-05-18T21:40:23.409Z,10.54
2023-05-18T21:42:51.196Z,10.46
2023-05-18T21:45:20.696Z,10.48
2023-05-18T21:47:50.130Z,10.43
2023-05-18T21:50:21.103Z,10.38
2023-05-18T21:52:48.962Z,10.36
2023-05-18T21:55:16.778Z,10.30
2023-05-18T21:57:44.575Z,10.26
2023-05-18T22:00:13.696Z,10.23
2023-05-18T22:02:41.543Z,10.16
2023-05-18T22:05:10.523Z,10.07
2023-05-18T22:07:39.661Z,10.04
2023-05-18T22:10:08.078Z,10.02
2023-05-18T22:12:37.448Z,9.99
2023-05-18T22:15:05.911Z,9.95
2023-05-18T22:17:35.143Z,9.84
2023-05-18T22:20:03.077Z,9.76
2023-05-18T22:22:31.081Z,9.73
2023-05-18T22:25:00.278Z,9.65
2023-05-18T22:27:28.015Z,9.57
2023-05-18T22:29:56.065Z,9.54
2023-05-18T22:32:24.019Z,9.53
2023-05-18T22:34:52.089Z,9.53
2023-05-18T22:37:19.874Z,9.52
2023-05-18T22:39:47.590Z,9.46
2023-05-18T22:42:16.734Z,9.46
2023-05-18T22:44:44.840Z,9.42
2023-05-18T22:47:13.477Z,9.38
2023-05-18T22:49:41.404Z,9.28
2023-05-18T22:52:10.265Z,9.24
2023-05-18T22:54:38.155Z,9.19
2023-05-18T22:57:06.379Z,9.18
2023-05-18T22:59:36.233Z,9.12
2023-05-18T23:02:04.665Z,9.11
2023-05-18T23:04:33.087Z,9.06
2023-05-18T23:07:01.760Z,9.06
2023-05-18T23:09:30.610Z,9.08
2023-05-18T23:12:01.168Z,9.09
2023-05-18T23:14:32.416Z,9.10
2023-05-18T23:17:03.776Z,9.03
2023-05-18T23:19:31.671Z,9.02
2023-05-18T23:21:59.497Z,9.01
2023-05-18T23:24:27.407Z,9.01
2023-05-18T23:26:55.141Z,8.97
2023-05-18T23:29:22.907Z,9.05
2023-05-18T23:31:52.264Z,9.05
2023-05-18T23:34:22.263Z,9.05
2023-05-18T23:36:57.368Z,9.04
2023-05-18T23:39:27.752Z,9.05
2023-05-18T23:41:59.160Z,9.08
2023-05-18T23:44:27.561Z,9.10
2023-05-18T23:46:56.146Z,9.12
2023-05-18T23:49:26.427Z,9.12
2023-05-18T23:51:54.907Z,9.09
2023-05-18T23:54:23.193Z,9.02
2023-05-18T23:56:51.612Z,8.99
2023-05-18T23:59:19.961Z,9.02
